createdAt,value
2022-08-22T00:00:38.593Z,0.00
2022-08-22T00:01:38.627Z,0.00
2022-08-22T00:02:38.700Z,0.00
2022-08-22T00:02:43.553Z,0.00
2022-08-22T00:02:44.477Z,0.00
2022-08-22T00:02:48.855Z,0.00
2022-08-22T00:03:04.185Z,0.00
2022-08-22T00:03:08.203Z,0.00
2022-08-22T00:03:11.262Z,0.00
2022-08-22T00:03:12.013Z,0.00
2022-08-22T00:03:15.953Z,0.00
2022-08-22T00:03:38.556Z,0.00
2022-08-22T00:04:38.548Z,0.00
2022-08-22T00:05:38.537Z,0.00
2022-08-22T00:06:38.528Z,0.00
2022-08-22T00:07:38.549Z,0.00
2022-08-22T00:08:38.828Z,0.00
2022-08-22T00:09:38.497Z,0.00
2022-08-22T00:10:38.489Z,0.00
2022-08-22T00:11:38.476Z,0.00
2022-08-22T00:12:38.470Z,0.00
2022-08-22T00:13:38.488Z,0.00
2022-08-22T00:14:38.448Z,0.00
2022-08-22T00:15:43.622Z,0.00
2022-08-22T00:16:39.421Z,0.00
2022-08-22T00:17:38.409Z,0.00
2022-08-22T00:18:38.400Z,0.00
2022-08-22T00:19:38.421Z,0.00
2022-08-22T00:20:38.382Z,0.00
2022-08-22T00:21:38.371Z,0.00
2022-08-22T00:22:38.364Z,0.00
2022-08-22T00:23:38.351Z,0.00
2022-08-22T00:24:38.341Z,0.00
2022-08-22T00:25:38.359Z,0.00
2022-08-22T00:26:41.152Z,0.00
2022-08-22T00:27:45.190Z,0.00
2022-08-22T00:28:39.293Z,0.00
2022-08-22T00:29:38.292Z,0.00
2022-08-22T00:30:38.277Z,0.00
2022-08-22T00:31:38.974Z,0.00
2022-08-22T00:32:38.256Z,0.00
2022-08-22T00:33:38.243Z,0.00
2022-08-22T00:34:38.236Z,0.00
2022-08-22T00:35:40.577Z,0.00
2022-08-22T00:36:39.234Z,0.00
2022-08-22T00:37:38.197Z,0.00
2022-08-22T00:38:38.196Z,0.00
2022-08-22T00:39:38.198Z,0.00
2022-08-22T00:40:38.168Z,0.00
2022-08-22T00:41:38.163Z,0.00
2022-08-22T00:42:38.178Z,0.00
2022-08-22T00:43:38.137Z,0.00
2022-08-22T00:44:38.128Z,0.00
2022-08-22T00:45:38.116Z,0.00
2022-08-22T00:46:38.109Z,0.00
2022-08-22T00:47:38.096Z,0.00
2022-08-22T00:48:38.119Z,0.00
2022-08-22T00:49:38.071Z,0.00
2022-08-22T00:50:38.066Z,0.00
2022-08-22T00:51:38.049Z,0.00
2022-08-22T00:52:38.042Z,0.00
2022-08-22T00:53:38.043Z,0.00
2022-08-22T00:54:38.049Z,0.00
2022-08-22T00:55:38.013Z,0.00
2022-08-22T00:56:38.011Z,0.00
2022-08-22T00:57:37.992Z,0.00
2022-08-22T00:58:37.983Z,0.00
2022-08-22T00:59:37.972Z,0.00
2022-08-22T01:00:37.990Z,0.00
2022-08-22T01:01:38.018Z,0.00
2022-08-22T01:02:37.943Z,0.00
2022-08-22T01:03:37.931Z,0.00
2022-08-22T01:04:37.931Z,0.00
2022-08-22T01:05:37.914Z,0.00
2022-08-22T01:06:37.933Z,0.00
2022-08-22T01:07:38.506Z,0.00
2022-08-22T01:08:37.882Z,0.00
2022-08-22T01:09:37.866Z,0.00
2022-08-22T01:10:37.866Z,0.00
2022-08-22T01:11:37.853Z,0.00
2022-08-22T01:12:37.880Z,0.00
2022-08-22T01:13:37.827Z,0.00
2022-08-22T01:14:37.826Z,0.00
2022-08-22T01:15:37.809Z,0.00
2022-08-22T01:16:37.797Z,0.00
2022-08-22T01:17:37.789Z,0.00
2022-08-22T01:18:37.807Z,0.00
2022-08-22T01:19:37.767Z,0.00
2022-08-22T01:20:37.771Z,0.00
2022-08-22T01:21:37.753Z,0.00
2022-08-22T01:22:37.738Z,0.00
2022-08-22T01:23:37.730Z,0.00
2022-08-22T01:24:37.751Z,0.00
2022-08-22T01:25:37.706Z,0.00
2022-08-22T01:26:37.708Z,0.00
2022-08-22T01:27:37.689Z,0.00
2022-08-22T01:28:37.681Z,0.00
2022-08-22T01:29:37.976Z,0.00
2022-08-22T01:30:37.693Z,0.00
2022-08-22T01:31:37.642Z,0.00
2022-08-22T01:32:37.643Z,0.00
2022-08-22T01:33:37.623Z,0.00
2022-08-22T01:34:37.622Z,0.00
2022-08-22T01:35:37.609Z,0.00
2022-08-22T01:36:37.635Z,0.00
2022-08-22T01:37:43.432Z,0.00
2022-08-22T01:38:38.581Z,0.00
2022-08-22T01:39:37.590Z,0.00
2022-08-22T01:40:37.562Z,0.00
2022-08-22T01:41:38.574Z,0.00
2022-08-22T01:42:37.544Z,0.00
2022-08-22T01:43:51.463Z,0.00
2022-08-22T01:44:38.529Z,0.00
2022-08-22T01:45:37.512Z,0.00
2022-08-22T01:46:37.496Z,0.00
2022-08-22T01:47:37.859Z,0.00
2022-08-22T01:48:37.482Z,0.00
2022-08-22T01:49:37.468Z,0.00
2022-08-22T01:50:37.464Z,0.00
2022-08-22T01:51:37.450Z,0.00
2022-08-22T01:52:37.431Z,0.00
2022-08-22T01:53:37.464Z,0.00
2022-08-22T01:54:37.418Z,0.00
2022-08-22T01:55:37.407Z,0.00
2022-08-22T01:56:37.400Z,0.00
2022-08-22T01:57:37.388Z,0.00
2022-08-22T01:58:37.370Z,0.00
2022-08-22T01:59:42.164Z,0.00
2022-08-22T02:00:38.350Z,0.00
2022-08-22T02:01:37.347Z,0.00
2022-08-22T02:02:37.331Z,0.00
2022-08-22T02:03:37.326Z,0.00
2022-08-22T02:04:37.311Z,0.00
2022-08-22T02:05:37.358Z,0.00
2022-08-22T02:06:37.289Z,0.00
2022-08-22T02:07:37.282Z,0.00
2022-08-22T02:08:37.270Z,0.00
2022-08-22T02:09:37.271Z,0.00
2022-08-22T02:10:37.251Z,0.00
2022-08-22T02:11:37.280Z,0.00
2022-08-22T02:12:37.229Z,0.00
2022-08-22T02:13:37.222Z,0.00
2022-08-22T02:14:37.211Z,0.00
2022-08-22T02:15:37.202Z,0.00
2022-08-22T02:16:37.184Z,0.00
2022-08-22T02:17:37.204Z,0.00
2022-08-22T02:18:37.165Z,0.00
2022-08-22T02:19:37.167Z,0.00
2022-08-22T02:20:37.145Z,0.00
2022-08-22T02:21:37.135Z,0.00
2022-08-22T02:22:37.121Z,0.00
2022-08-22T02:23:38.142Z,0.00
2022-08-22T02:24:37.108Z,0.00
2022-08-22T02:25:37.097Z,0.00
2022-08-22T02:26:37.086Z,0.00
2022-08-22T02:27:37.078Z,0.00
2022-08-22T02:28:37.065Z,0.00
2022-08-22T02:29:38.093Z,0.00
2022-08-22T02:30:37.046Z,0.00
2022-08-22T02:31:37.028Z,0.00
2022-08-22T02:32:37.018Z,0.00
2022-08-22T02:33:37.014Z,0.00
2022-08-22T02:34:36.998Z,0.00
2022-08-22T02:35:37.017Z,0.00
2022-08-22T02:36:36.976Z,0.00
2022-08-22T02:37:36.970Z,0.00
2022-08-22T02:38:36.958Z,0.00
2022-08-22T02:39:37.015Z,0.00
2022-08-22T02:40:36.941Z,0.00
2022-08-22T02:41:36.950Z,0.00
2022-08-22T02:42:36.920Z,0.00
2022-08-22T02:43:36.927Z,0.00
2022-08-22T02:44:36.892Z,0.00
2022-08-22T02:45:36.889Z,0.00
2022-08-22T02:46:36.883Z,0.00
2022-08-22T02:47:36.891Z,0.00
2022-08-22T02:48:36.851Z,0.00
2022-08-22T02:49:43.752Z,0.00
2022-08-22T02:50:37.834Z,0.00
2022-08-22T02:51:36.829Z,0.00
2022-08-22T02:52:36.813Z,0.00
2022-08-22T02:53:36.833Z,0.00
2022-08-22T02:54:36.792Z,0.00
2022-08-22T02:55:36.786Z,0.00
2022-08-22T02:56:36.775Z,0.00
2022-08-22T02:57:39.507Z,0.00
2022-08-22T02:58:36.751Z,0.00
2022-08-22T02:59:36.773Z,0.00
2022-08-22T03:00:36.819Z,0.00
2022-08-22T03:01:36.731Z,0.00
2022-08-22T03:02:36.706Z,0.00
2022-08-22T03:03:36.695Z,0.00
2022-08-22T03:04:36.686Z,0.00
2022-08-22T03:05:36.707Z,0.00
2022-08-22T03:06:36.667Z,0.00
2022-08-22T03:07:36.659Z,0.00
2022-08-22T03:08:36.656Z,0.00
2022-08-22T03:09:36.636Z,0.00
2022-08-22T03:10:36.635Z,0.00
2022-08-22T03:11:36.656Z,0.00
2022-08-22T03:12:36.599Z,0.00
2022-08-22T03:13:36.557Z,1.00
2022-08-22T03:14:36.529Z,1.00
2022-08-22T03:15:36.526Z,2.00
2022-08-22T03:16:36.517Z,1.00
2022-08-22T03:17:36.538Z,2.00
2022-08-22T03:18:36.499Z,1.00
2022-08-22T03:19:36.487Z,1.00
2022-08-22T03:20:36.471Z,2.00
2022-08-22T03:21:36.465Z,1.00
2022-08-22T03:22:36.452Z,2.00
2022-08-22T03:23:36.462Z,2.00
2022-08-22T03:24:36.421Z,3.00
2022-08-22T03:25:36.422Z,3.00
2022-08-22T03:26:36.411Z,3.00
2022-08-22T03:27:36.401Z,3.00
2022-08-22T03:28:36.381Z,4.00
2022-08-22T03:29:36.411Z,4.00
2022-08-22T03:30:36.373Z,5.00
2022-08-22T03:31:36.361Z,5.00
2022-08-22T03:32:36.341Z,5.00
2022-08-22T03:33:36.340Z,6.00
2022-08-22T03:34:36.326Z,7.00
2022-08-22T03:35:36.359Z,7.00
2022-08-22T03:36:36.303Z,8.00
2022-08-22T03:37:36.295Z,8.00
2022-08-22T03:38:36.284Z,9.00
2022-08-22T03:39:36.273Z,9.00
2022-08-22T03:40:36.264Z,10.00
2022-08-22T03:41:36.286Z,11.00
2022-08-22T03:42:36.241Z,11.00
2022-08-22T03:43:36.245Z,12.00
2022-08-22T03:44:36.229Z,13.00
2022-08-22T03:45:36.215Z,13.00
2022-08-22T03:46:36.209Z,14.00
2022-08-22T03:47:36.234Z,15.00
2022-08-22T03:48:36.188Z,14.00
2022-08-22T03:49:36.177Z,15.00
2022-08-22T03:50:36.161Z,16.00
2022-08-22T03:51:36.157Z,16.00
2022-08-22T03:52:36.147Z,17.00
2022-08-22T03:53:36.166Z,17.00
2022-08-22T03:54:36.117Z,18.00
2022-08-22T03:55:36.117Z,19.00
2022-08-22T03:56:36.099Z,20.00
2022-08-22T03:57:36.099Z,21.00
2022-08-22T03:58:36.086Z,22.00
2022-08-22T03:59:36.097Z,23.00
2022-08-22T04:00:37.092Z,23.00
2022-08-22T04:01:36.050Z,25.00
2022-08-22T04:02:43.038Z,25.00
2022-08-22T04:03:37.039Z,26.00
2022-08-22T04:04:36.021Z,26.00
2022-08-22T04:05:36.039Z,27.00
2022-08-22T04:06:36.009Z,28.00
2022-08-22T04:07:36.002Z,29.00
2022-08-22T04:08:35.980Z,29.00
2022-08-22T04:09:37.053Z,30.00
2022-08-22T04:10:35.967Z,31.00
2022-08-22T04:11:35.992Z,32.00
2022-08-22T04:12:35.947Z,33.00
2022-08-22T04:13:35.933Z,33.00
2022-08-22T04:14:35.920Z,34.00
2022-08-22T04:15:35.914Z,35.00
2022-08-22T04:16:35.908Z,36.00
2022-08-22T04:17:35.948Z,36.00
2022-08-22T04:18:35.874Z,37.00
2022-08-22T04:19:35.871Z,38.00
2022-08-22T04:20:35.868Z,39.00
2022-08-22T04:21:35.856Z,39.00
2022-08-22T04:22:35.837Z,41.00
2022-08-22T04:23:35.859Z,41.00
2022-08-22T04:24:35.815Z,42.00
2022-08-22T04:25:35.805Z,43.00
2022-08-22T04:26:35.792Z,43.00
2022-08-22T04:27:35.795Z,45.00
2022-08-22T04:28:35.766Z,45.00
2022-08-22T04:29:35.797Z,46.00
2022-08-22T04:30:35.758Z,47.00
2022-08-22T04:31:35.747Z,47.00
2022-08-22T04:32:35.737Z,49.00
2022-08-22T04:33:35.725Z,49.00
2022-08-22T04:34:35.708Z,51.00
2022-08-22T04:35:35.727Z,52.00
2022-08-22T04:36:35.688Z,52.00
2022-08-22T04:37:35.689Z,53.00
2022-08-22T04:38:35.669Z,55.00
2022-08-22T04:39:35.672Z,55.00
2022-08-22T04:40:35.650Z,56.00
2022-08-22T04:41:35.675Z,58.00
2022-08-22T04:42:35.631Z,59.00
2022-08-22T04:43:35.626Z,60.00
2022-08-22T04:44:35.611Z,61.00
2022-08-22T04:45:35.600Z,62.00
2022-08-22T04:46:37.115Z,63.00
2022-08-22T04:47:35.619Z,65.00
2022-08-22T04:48:35.571Z,66.00
2022-08-22T04:49:35.560Z,66.00
2022-08-22T04:50:37.249Z,68.00
2022-08-22T04:51:35.542Z,69.00
2022-08-22T04:52:35.531Z,70.00
2022-08-22T04:53:35.555Z,71.00
2022-08-22T04:54:35.510Z,73.00
2022-08-22T04:55:35.503Z,73.00
2022-08-22T04:56:35.494Z,74.00
2022-08-22T04:57:35.481Z,75.00
2022-08-22T04:58:35.465Z,77.00
2022-08-22T04:59:35.493Z,77.00
2022-08-22T05:00:35.444Z,79.00
2022-08-22T05:01:35.472Z,81.00
2022-08-22T05:02:35.430Z,82.00
2022-08-22T05:03:35.414Z,83.00
2022-08-22T05:04:35.404Z,84.00
2022-08-22T05:05:35.424Z,86.00
2022-08-22T05:06:35.387Z,87.00
2022-08-22T05:07:36.088Z,89.00
2022-08-22T05:08:35.364Z,88.00
2022-08-22T05:09:35.355Z,90.00
2022-08-22T05:10:35.342Z,106.00
2022-08-22T05:11:35.373Z,125.00
2022-08-22T05:12:35.327Z,115.00
2022-08-22T05:13:35.317Z,114.00
2022-08-22T05:14:35.305Z,132.00
2022-08-22T05:15:35.294Z,158.00
2022-08-22T05:16:35.278Z,192.00
2022-08-22T05:17:35.295Z,241.00
2022-08-22T05:18:35.258Z,314.00
2022-08-22T05:19:35.256Z,463.00
2022-08-22T05:20:35.238Z,519.00
2022-08-22T05:21:35.237Z,554.00
2022-08-22T05:22:35.220Z,367.00
2022-08-22T05:23:35.247Z,408.00
2022-08-22T05:24:35.198Z,451.00
2022-08-22T05:25:36.374Z,438.00
2022-08-22T05:26:35.184Z,438.00
2022-08-22T05:27:35.178Z,448.00
2022-08-22T05:28:35.149Z,452.00
2022-08-22T05:29:35.180Z,444.00
2022-08-22T05:30:35.141Z,438.00
2022-08-22T05:31:35.129Z,452.00
2022-08-22T05:32:35.120Z,470.00
2022-08-22T05:33:35.110Z,491.00
2022-08-22T05:34:35.092Z,509.00
2022-08-22T05:35:35.117Z,518.00
2022-08-22T05:36:35.075Z,529.00
2022-08-22T05:37:35.071Z,541.00
2022-08-22T05:38:35.052Z,552.00
2022-08-22T05:39:35.044Z,564.00
2022-08-22T05:40:35.035Z,570.00
2022-08-22T05:41:35.054Z,573.00
2022-08-22T05:42:35.013Z,580.00
2022-08-22T05:43:35.006Z,587.00
2022-08-22T05:44:34.994Z,596.00
2022-08-22T05:45:34.987Z,605.00
2022-08-22T05:46:34.974Z,615.00
2022-08-22T05:47:35.005Z,623.00
2022-08-22T05:48:34.955Z,614.00
2022-08-22T05:49:34.937Z,557.00
2022-08-22T05:50:34.927Z,493.00
2022-08-22T05:51:34.927Z,477.00
2022-08-22T05:52:34.909Z,485.00
2022-08-22T05:53:34.918Z,492.00
2022-08-22T05:54:34.889Z,499.00
2022-08-22T05:55:34.879Z,507.00
2022-08-22T05:56:34.867Z,513.00
2022-08-22T05:57:34.858Z,504.00
2022-08-22T05:58:34.847Z,481.00
2022-08-22T05:59:34.869Z,476.00
2022-08-22T06:00:34.828Z,484.00
2022-08-22T06:01:34.865Z,486.00
2022-08-22T06:02:34.811Z,485.00
2022-08-22T06:03:34.792Z,490.00
2022-08-22T06:04:34.781Z,496.00
2022-08-22T06:05:34.802Z,506.00
2022-08-22T06:06:34.762Z,524.00
2022-08-22T06:07:34.757Z,542.00
2022-08-22T06:08:34.749Z,554.00
2022-08-22T06:09:35.568Z,562.00
2022-08-22T06:10:34.723Z,568.00
2022-08-22T06:11:34.733Z,573.00
2022-08-22T06:12:34.703Z,578.00
2022-08-22T06:13:34.691Z,586.00
2022-08-22T06:14:34.706Z,593.00
2022-08-22T06:15:34.665Z,597.00
2022-08-22T06:16:34.670Z,598.00
2022-08-22T06:17:34.683Z,600.00
2022-08-22T06:18:34.657Z,601.00
2022-08-22T06:19:34.629Z,603.00
2022-08-22T06:20:34.615Z,599.00
2022-08-22T06:21:39.215Z,602.00
2022-08-22T06:22:35.627Z,603.00
2022-08-22T06:23:34.587Z,605.00
2022-08-22T06:24:34.586Z,606.00
2022-08-22T06:25:34.573Z,607.00
2022-08-22T06:26:34.560Z,612.00
2022-08-22T06:27:34.548Z,618.00
2022-08-22T06:28:34.578Z,614.00
2022-08-22T06:29:34.522Z,607.00
2022-08-22T06:30:34.518Z,605.00
2022-08-22T06:31:34.498Z,595.00
2022-08-22T06:32:59.351Z,596.00
2022-08-22T06:33:35.517Z,588.00
2022-08-22T06:34:34.472Z,566.00
2022-08-22T06:35:34.461Z,565.00
2022-08-22T06:36:34.455Z,581.00
2022-08-22T06:37:34.443Z,599.00
2022-08-22T06:38:34.432Z,618.00
2022-08-22T06:39:34.442Z,639.00
2022-08-22T06:40:34.413Z,651.00
2022-08-22T06:41:34.400Z,658.00
2022-08-22T06:42:34.382Z,665.00
2022-08-22T06:43:34.383Z,664.00
2022-08-22T06:44:34.373Z,653.00
2022-08-22T06:45:34.381Z,645.00
2022-08-22T06:46:34.352Z,643.00
2022-08-22T06:47:34.341Z,637.00
2022-08-22T06:48:34.335Z,641.00
2022-08-22T06:49:34.318Z,651.00
2022-08-22T06:50:34.314Z,662.00
2022-08-22T06:51:34.326Z,678.00
2022-08-22T06:52:34.296Z,672.00
2022-08-22T06:53:34.277Z,667.00
2022-08-22T06:54:34.584Z,694.00
2022-08-22T06:55:34.267Z,715.00
2022-08-22T06:56:34.257Z,735.00
2022-08-22T06:57:34.265Z,748.00
2022-08-22T06:58:34.475Z,753.00
2022-08-22T06:59:34.217Z,757.00
2022-08-22T07:00:34.211Z,768.00
2022-08-22T07:01:34.209Z,772.00
2022-08-22T07:02:34.191Z,769.00
2022-08-22T07:03:34.200Z,770.00
2022-08-22T07:04:34.159Z,766.00
2022-08-22T07:05:34.151Z,712.00
2022-08-22T07:06:34.149Z,674.00
2022-08-22T07:07:34.131Z,727.00
2022-08-22T07:08:38.865Z,768.00
2022-08-22T07:09:35.132Z,774.00
2022-08-22T07:10:34.102Z,772.00
2022-08-22T07:11:34.090Z,768.00
2022-08-22T07:12:34.088Z,781.00
2022-08-22T07:13:34.071Z,801.00
2022-08-22T07:14:34.067Z,834.00
2022-08-22T07:15:34.083Z,845.00
2022-08-22T07:16:34.044Z,852.00
2022-08-22T07:17:35.945Z,864.00
2022-08-22T07:18:35.022Z,874.00
2022-08-22T07:19:34.006Z,884.00
2022-08-22T07:20:33.996Z,894.00
2022-08-22T07:21:36.205Z,904.00
2022-08-22T07:22:33.994Z,914.00
2022-08-22T07:23:33.968Z,922.00
2022-08-22T07:24:33.966Z,931.00
2022-08-22T07:25:33.957Z,939.00
2022-08-22T07:26:33.938Z,946.00
2022-08-22T07:27:33.948Z,956.00
2022-08-22T07:28:37.022Z,971.00
2022-08-22T07:29:34.898Z,982.00
2022-08-22T07:30:33.891Z,994.00
2022-08-22T07:31:33.893Z,1002.00
2022-08-22T07:32:33.880Z,1010.00
2022-08-22T07:33:33.892Z,1019.00
2022-08-22T07:34:33.858Z,1029.00
2022-08-22T07:35:33.842Z,1039.00
2022-08-22T07:36:33.831Z,1049.00
2022-08-22T07:37:33.821Z,1059.00
2022-08-22T07:38:33.813Z,1067.00
2022-08-22T07:39:33.834Z,1076.00
2022-08-22T07:40:33.791Z,1086.00
2022-08-22T07:41:33.774Z,1094.00
2022-08-22T07:42:33.766Z,1103.00
2022-08-22T07:43:33.755Z,1112.00
2022-08-22T07:44:33.755Z,1119.00
2022-08-22T07:45:33.773Z,1128.00
2022-08-22T07:46:33.736Z,1139.00
2022-08-22T07:47:33.736Z,1147.00
2022-08-22T07:48:34.001Z,1156.00
2022-08-22T07:49:33.693Z,1164.00
2022-08-22T07:50:33.695Z,1172.00
2022-08-22T07:51:33.701Z,1180.00
2022-08-22T07:52:33.669Z,1182.00
2022-08-22T07:53:33.659Z,1183.00
2022-08-22T07:54:33.647Z,1191.00
2022-08-22T07:55:33.640Z,1196.00
2022-08-22T07:56:34.654Z,1202.00
2022-08-22T07:57:33.621Z,1202.00
2022-08-22T07:58:33.609Z,1204.00
2022-08-22T07:59:33.587Z,1211.00
2022-08-22T08:00:33.590Z,1223.00
2022-08-22T08:01:33.579Z,1236.00
2022-08-22T08:02:33.589Z,1250.00
2022-08-22T08:03:33.549Z,1261.00
2022-08-22T08:04:38.074Z,1263.00
2022-08-22T08:05:34.523Z,1267.00
2022-08-22T08:06:33.523Z,1272.00
2022-08-22T08:07:33.513Z,1277.00
2022-08-22T08:08:33.531Z,1282.00
2022-08-22T08:09:33.486Z,1286.00
2022-08-22T08:10:33.475Z,1291.00
2022-08-22T08:11:33.466Z,1297.00
2022-08-22T08:12:33.464Z,1294.00
2022-08-22T08:13:33.446Z,1284.00
2022-08-22T08:14:33.465Z,1285.00
2022-08-22T08:15:33.426Z,1293.00
2022-08-22T08:16:33.417Z,1305.00
2022-08-22T08:17:33.411Z,1309.00
2022-08-22T08:18:33.405Z,1315.00
2022-08-22T08:19:33.378Z,1323.00
2022-08-22T08:20:33.398Z,1331.00
2022-08-22T08:21:33.360Z,1344.00
2022-08-22T08:22:33.358Z,1349.00
2022-08-22T08:23:35.825Z,1348.00
2022-08-22T08:24:37.630Z,1346.00
2022-08-22T08:25:34.361Z,1352.00
2022-08-22T08:26:33.311Z,1352.00
2022-08-22T08:27:33.312Z,1341.00
2022-08-22T08:28:33.291Z,1329.00
2022-08-22T08:29:33.275Z,1344.00
2022-08-22T08:30:33.274Z,1358.00
2022-08-22T08:31:33.285Z,1358.00
2022-08-22T08:32:33.254Z,1360.00
2022-08-22T08:33:33.226Z,1376.00
2022-08-22T08:34:35.240Z,1357.00
2022-08-22T08:35:42.167Z,1336.00
2022-08-22T08:36:34.247Z,1351.00
2022-08-22T08:37:33.204Z,1366.00
2022-08-22T08:38:33.194Z,1402.00
2022-08-22T08:39:35.363Z,1414.00
2022-08-22T08:40:33.167Z,1420.00
2022-08-22T08:41:33.158Z,1420.00
2022-08-22T08:42:33.186Z,1421.00
2022-08-22T08:43:33.136Z,1425.00
2022-08-22T08:44:33.129Z,1429.00
2022-08-22T08:45:33.119Z,1434.00
2022-08-22T08:46:33.108Z,1439.00
2022-08-22T08:47:33.097Z,1440.00
2022-08-22T08:48:33.130Z,1438.00
2022-08-22T08:49:33.698Z,1432.00
2022-08-22T08:50:33.073Z,1416.00
2022-08-22T08:51:33.052Z,1411.00
2022-08-22T08:52:33.049Z,1433.00
2022-08-22T08:53:33.032Z,1451.00
2022-08-22T08:54:33.064Z,1450.00
2022-08-22T08:55:33.023Z,1447.00
2022-08-22T08:56:33.003Z,1443.00
2022-08-22T08:57:32.986Z,1413.00
2022-08-22T08:58:32.987Z,1384.00
2022-08-22T08:59:32.974Z,1389.00
2022-08-22T09:00:32.996Z,1407.00
2022-08-22T09:01:33.083Z,1438.00
2022-08-22T09:03:33.924Z,1452.00
2022-08-22T09:04:32.927Z,1443.00
2022-08-22T09:05:32.908Z,1376.00
2022-08-22T09:06:32.928Z,1332.00
2022-08-22T09:07:32.888Z,1344.00
2022-08-22T09:08:32.879Z,1324.00
2022-08-22T09:09:32.871Z,1354.00
2022-08-22T09:10:32.862Z,1371.00
2022-08-22T09:11:32.850Z,1378.00
2022-08-22T09:12:32.887Z,1408.00
2022-08-22T09:13:34.514Z,1415.00
2022-08-22T09:14:33.819Z,1467.00
2022-08-22T09:15:37.487Z,1539.00
2022-08-22T09:16:33.793Z,1499.00
2022-08-22T09:17:32.783Z,1421.00
2022-08-22T09:18:32.804Z,1461.00
2022-08-22T09:19:32.754Z,1520.00
2022-08-22T09:20:32.752Z,1516.00
2022-08-22T09:21:32.743Z,1484.00
2022-08-22T09:22:33.375Z,1424.00
2022-08-22T09:23:33.747Z,1392.00
2022-08-22T09:24:32.716Z,1381.00
2022-08-22T09:26:33.688Z,1373.00
2022-08-22T09:27:32.678Z,1400.00
2022-08-22T09:28:32.670Z,1427.00
2022-08-22T09:29:32.678Z,1458.00
2022-08-22T09:30:32.670Z,1466.00
2022-08-22T09:31:32.911Z,1495.00
2022-08-22T09:32:33.631Z,1483.00
2022-08-22T09:33:32.610Z,1518.00
2022-08-22T09:34:32.609Z,1546.00
2022-08-22T09:35:32.630Z,1521.00
2022-08-22T09:36:32.592Z,1504.00
2022-08-22T09:37:32.572Z,1495.00
2022-08-22T09:38:32.572Z,1504.00
2022-08-22T09:39:32.554Z,1500.00
2022-08-22T09:40:15.556Z,1347.00
2022-08-22T09:40:32.544Z,1480.00
2022-08-22T09:41:32.566Z,1446.00
2022-08-22T09:42:32.524Z,1424.00
2022-08-22T09:43:33.598Z,1464.00
2022-08-22T09:44:32.505Z,1515.00
2022-08-22T09:45:32.492Z,1523.00
2022-08-22T09:46:36.801Z,1539.00
2022-08-22T09:47:33.197Z,1521.00
2022-08-22T09:48:32.466Z,1499.00
2022-08-22T09:49:32.449Z,1417.00
2022-08-22T09:50:32.447Z,1339.00
2022-08-22T09:51:33.335Z,1349.00
2022-08-22T09:52:36.794Z,1342.00
2022-08-22T09:53:32.450Z,1416.00
2022-08-22T09:54:32.688Z,1480.00
2022-08-22T09:55:35.389Z,1523.00
2022-08-22T09:56:32.383Z,1536.00
2022-08-22T09:57:32.370Z,1516.00
2022-08-22T09:58:32.373Z,1485.00
2022-08-22T09:59:33.547Z,1467.00
2022-08-22T10:00:32.343Z,1486.00
2022-08-22T10:01:32.631Z,1547.00
2022-08-22T10:02:32.334Z,1568.00
2022-08-22T10:03:32.311Z,1573.00
2022-08-22T10:04:32.304Z,1579.00
2022-08-22T10:05:41.158Z,1581.00
2022-08-22T10:06:33.287Z,1578.00
2022-08-22T10:07:32.277Z,1454.00
2022-08-22T10:08:32.264Z,1310.00
2022-08-22T10:09:32.252Z,1385.00
2022-08-22T10:10:32.254Z,1365.00
2022-08-22T10:11:32.258Z,1321.00
2022-08-22T10:12:36.426Z,1333.00
2022-08-22T10:13:32.216Z,1320.00
2022-08-22T10:14:32.211Z,1374.00
2022-08-22T10:15:32.198Z,1332.00
2022-08-22T10:16:32.189Z,1265.00
2022-08-22T10:17:32.210Z,1255.00
2022-08-22T10:18:32.161Z,1294.00
2022-08-22T10:19:32.162Z,1384.00
2022-08-22T10:20:32.148Z,1417.00
2022-08-22T10:21:32.141Z,1425.00
2022-08-22T10:22:32.129Z,1383.00
2022-08-22T10:23:32.140Z,1365.00
2022-08-22T10:24:32.102Z,1361.00
2022-08-22T10:25:32.093Z,1326.00
2022-08-22T10:26:36.511Z,1313.00
2022-08-22T10:27:33.084Z,1314.00
2022-08-22T10:28:32.066Z,1317.00
2022-08-22T10:29:32.096Z,1286.00
2022-08-22T10:30:32.043Z,1244.00
2022-08-22T10:31:32.049Z,1200.00
2022-08-22T10:32:32.030Z,1229.00
2022-08-22T10:33:32.018Z,1274.00
2022-08-22T10:34:32.009Z,1327.00
2022-08-22T10:35:34.053Z,1338.00
2022-08-22T10:36:31.987Z,1348.00
2022-08-22T10:37:32.328Z,1382.00
2022-08-22T10:38:31.967Z,1411.00
2022-08-22T10:39:32.515Z,1416.00
2022-08-22T10:40:31.948Z,1407.00
2022-08-22T10:41:31.970Z,1420.00
2022-08-22T10:42:35.121Z,1429.00
2022-08-22T10:43:31.921Z,1438.00
2022-08-22T10:44:31.904Z,1408.00
2022-08-22T10:45:36.578Z,1398.00
2022-08-22T10:46:32.921Z,1399.00
2022-08-22T10:47:31.883Z,1365.00
2022-08-22T10:48:31.869Z,1411.00
2022-08-22T10:49:31.863Z,1424.00
2022-08-22T10:50:31.917Z,1439.00
2022-08-22T10:51:31.844Z,1448.00
2022-08-22T10:52:31.889Z,1438.00
2022-08-22T10:53:31.817Z,1471.00
2022-08-22T10:54:31.814Z,1464.00
2022-08-22T10:55:31.806Z,1496.00
2022-08-22T10:56:31.787Z,1548.00
2022-08-22T10:57:31.787Z,1492.00
2022-08-22T10:58:31.789Z,1480.00
2022-08-22T10:59:31.776Z,1507.00
2022-08-22T11:00:31.805Z,1493.00
2022-08-22T11:01:38.290Z,1510.00
2022-08-22T11:02:32.721Z,1539.00
2022-08-22T11:03:31.721Z,1498.00
2022-08-22T11:04:31.744Z,1453.00
2022-08-22T11:05:31.703Z,1462.00
2022-08-22T11:06:31.689Z,1483.00
2022-08-22T11:07:31.682Z,1502.00
2022-08-22T11:08:34.804Z,1500.00
2022-08-22T11:09:36.842Z,1500.00
2022-08-22T11:10:32.674Z,1495.00
2022-08-22T11:11:32.917Z,1469.00
2022-08-22T11:12:35.025Z,1441.00
2022-08-22T11:13:31.614Z,1431.00
2022-08-22T11:14:31.604Z,1442.00
2022-08-22T11:15:34.998Z,1489.00
2022-08-22T11:16:31.607Z,1497.00
2022-08-22T11:17:35.570Z,1494.00
2022-08-22T11:18:32.558Z,1491.00
2022-08-22T11:19:31.549Z,1488.00
2022-08-22T11:20:31.541Z,1481.00
2022-08-22T11:21:31.541Z,1478.00
2022-08-22T11:22:31.544Z,1475.00
2022-08-22T11:23:31.511Z,1470.00
2022-08-22T11:24:36.177Z,1460.00
2022-08-22T11:25:35.783Z,1451.00
2022-08-22T11:26:35.792Z,1464.00
2022-08-22T11:27:39.978Z,1478.00
2022-08-22T11:28:32.449Z,1473.00
2022-08-22T11:29:31.443Z,1452.00
2022-08-22T11:30:31.433Z,1437.00
2022-08-22T11:31:36.518Z,1437.00
2022-08-22T11:32:31.415Z,1426.00
2022-08-22T11:33:33.859Z,1435.00
2022-08-22T11:34:32.386Z,1432.00
2022-08-22T11:35:31.377Z,1424.00
2022-08-22T11:36:31.482Z,1425.00
2022-08-22T11:37:42.764Z,1441.00
2022-08-22T11:38:32.959Z,1423.00
2022-08-22T11:39:31.338Z,1403.00
2022-08-22T11:40:31.392Z,1396.00
2022-08-22T11:41:31.333Z,1380.00
2022-08-22T11:42:31.310Z,1347.00
2022-08-22T11:43:32.466Z,1325.00
2022-08-22T11:44:31.337Z,1322.00
2022-08-22T11:45:31.341Z,1319.00
2022-08-22T11:46:31.271Z,1312.00
2022-08-22T11:47:31.262Z,1326.00
2022-08-22T11:48:31.243Z,1341.00
2022-08-22T11:49:31.234Z,1336.00
2022-08-22T11:50:31.262Z,1343.00
2022-08-22T11:51:34.138Z,1326.00
2022-08-22T11:52:31.204Z,1309.00
2022-08-22T11:53:31.195Z,1299.00
2022-08-22T11:54:31.502Z,1296.00
2022-08-22T11:55:33.191Z,1276.00
2022-08-22T11:56:31.195Z,1227.00
2022-08-22T11:57:31.165Z,1204.00
2022-08-22T11:58:31.144Z,1204.00
2022-08-22T11:59:31.135Z,1216.00
2022-08-22T12:00:31.125Z,1219.00
2022-08-22T12:01:34.417Z,1239.00
2022-08-22T12:02:31.261Z,1242.00
2022-08-22T12:03:31.104Z,1245.00
2022-08-22T12:04:31.089Z,1256.00
2022-08-22T12:05:31.068Z,1264.00
2022-08-22T12:06:31.063Z,1252.00
2022-08-22T12:07:31.054Z,1243.00
2022-08-22T12:08:31.051Z,1249.00
2022-08-22T12:09:31.033Z,1237.00
2022-08-22T12:10:31.843Z,1227.00
2022-08-22T12:11:31.013Z,1248.00
2022-08-22T12:12:32.944Z,1249.00
2022-08-22T12:13:35.196Z,1207.00
2022-08-22T12:14:30.995Z,1165.00
2022-08-22T12:15:33.374Z,1149.00
2022-08-22T12:16:30.953Z,1165.00
2022-08-22T12:17:55.948Z,1232.00
2022-08-22T12:18:31.934Z,1199.00
2022-08-22T12:19:32.967Z,1227.00
2022-08-22T12:20:30.930Z,1219.00
2022-08-22T12:21:30.906Z,1222.00
2022-08-22T12:22:30.889Z,1238.00
2022-08-22T12:23:48.610Z,1222.00
2022-08-22T12:24:31.860Z,1221.00
2022-08-22T12:25:30.867Z,1248.00
2022-08-22T12:26:30.885Z,1246.00
2022-08-22T12:27:30.841Z,1072.00
2022-08-22T12:28:30.831Z,841.00
2022-08-22T12:29:34.153Z,902.00